Time;durP1;ratioP1;P1;durP2;ratioP2;P2;SDS_P1;SDS_P2;PMS_P1;PMS_P2;Temp;Humidity;BMP_temperature;BMP_pressure;BME280_temperature;BME280_humidity;BME280_pressure;Samples;Min_cycle;Max_cycle;Signal;HPM_P1;HPM_P2
2022/03/11 00:02:03;;;;;;;3.95;2.47;;;10.00;38.60;;;;;;4990193;28;20465;-87
2022/03/11 00:04:29;;;;;;;3.75;2.17;;;10.00;38.70;;;;;;4984179;28;20802;-87
2022/03/11 00:06:54;;;;;;;3.83;2.23;;;9.90;38.70;;;;;;4987346;28;20159;-87
2022/03/11 00:09:20;;;;;;;4.90;2.28;;;9.90;38.70;;;;;;4992973;28;20029;-87
2022/03/11 00:11:45;;;;;;;4.03;2.13;;;9.80;38.60;;;;;;5001068;28;20083;-87
2022/03/11 00:14:11;;;;;;;4.97;2.53;;;9.80;38.70;;;;;;5011612;28;20021;-87
2022/03/11 00:16:37;;;;;;;3.78;2.38;;;9.80;38.80;;;;;;4999889;28;20041;-87
2022/03/11 00:19:02;;;;;;;3.17;2.20;;;9.70;38.60;;;;;;4986252;28;20025;-87
2022/03/11 00:21:28;;;;;;;3.92;2.00;;;9.70;38.70;;;;;;5000942;28;20381;-87
2022/03/11 00:23:54;;;;;;;4.13;2.13;;;9.60;38.80;;;;;;5012302;28;20382;-87
2022/03/11 00:26:19;;;;;;;3.90;2.05;;;9.60;39.00;;;;;;4995026;28;20509;-87
2022/03/11 00:28:45;;;;;;;3.90;2.20;;;9.60;39.70;;;;;;4991096;28;20033;-87
2022/03/11 00:31:11;;;;;;;3.65;2.30;;;9.50;39.00;;;;;;5010671;28;20478;-87
2022/03/11 00:33:36;;;;;;;4.07;2.23;;;9.40;39.80;;;;;;4994562;28;20394;-87
2022/03/11 00:36:02;;;;;;;4.30;2.30;;;9.40;39.00;;;;;;4985993;28;20022;-87
2022/03/11 00:38:28;;;;;;;4.03;2.30;;;9.40;39.00;;;;;;4986318;28;20030;-87
2022/03/11 00:40:56;;;;;;;3.45;2.10;;;9.30;39.10;;;;;;5008259;28;20445;-87
2022/03/11 00:43:26;;;;;;;4.78;2.60;;;9.30;39.20;;;;;;4982491;28;20173;-87
2022/03/11 00:45:52;;;;;;;3.78;2.13;;;9.30;39.60;;;;;;5007696;28;20033;-87
2022/03/11 00:48:18;;;;;;;4.07;2.33;;;9.30;39.60;;;;;;5011538;28;20233;-87
2022/03/11 00:50:44;;;;;;;4.85;2.60;;;9.20;39.60;;;;;;4988475;28;20026;-87
2022/03/11 00:53:10;;;;;;;4.05;2.15;;;9.20;39.60;;;;;;4992260;28;20203;-87
2022/03/11 00:55:35;;;;;;;3.30;1.97;;;9.10;39.50;;;;;;5019020;28;20485;-87
2022/03/11 00:58:01;;;;;;;3.85;2.30;;;9.10;40.30;;;;;;4987794;28;20022;-87
2022/03/11 01:00:27;;;;;;;3.87;2.30;;;9.00;39.60;;;;;;5000018;28;20112;-87
2022/03/11 01:02:53;;;;;;;4.80;2.50;;;9.00;39.50;;;;;;5021091;28;20373;-87
2022/03/11 01:05:22;;;;;;;4.68;2.47;;;8.90;39.60;;;;;;4981860;28;20684;-86
2022/03/11 01:07:48;;;;;;;4.43;2.33;;;8.90;39.70;;;;;;5002261;28;20025;-87
2022/03/11 01:10:14;;;;;;;4.93;2.58;;;8.90;39.70;;;;;;5006817;28;20180;-87
2022/03/11 01:12:39;;;;;;;3.85;2.35;;;8.90;39.90;;;;;;4996579;28;20548;-87
2022/03/11 01:15:07;;;;;;;3.60;2.37;;;8.90;39.90;;;;;;4986033;28;20026;-87
2022/03/11 01:17:32;;;;;;;4.00;2.28;;;8.90;40.10;;;;;;5001402;28;20037;-87
2022/03/11 01:19:58;;;;;;;4.25;2.47;;;8.80;39.90;;;;;;5008903;28;20542;-87
2022/03/11 01:22:24;;;;;;;4.67;2.60;;;8.80;40.00;;;;;;5007522;28;20238;-87
2022/03/11 01:24:50;;;;;;;4.60;2.63;;;8.80;40.00;;;;;;4993957;28;20033;-86
2022/03/11 01:27:15;;;;;;;4.00;2.40;;;8.80;40.20;;;;;;4989490;28;20509;-86
2022/03/11 01:29:41;;;;;;;4.60;2.47;;;8.70;40.10;;;;;;4985042;28;20405;-87
2022/03/11 01:32:07;;;;;;;4.50;2.40;;;8.70;40.20;;;;;;4986239;28;20433;-86
2022/03/11 01:34:33;;;;;;;3.33;2.15;;;8.70;40.30;;;;;;5010480;28;20167;-87
2022/03/11 01:36:58;;;;;;;3.15;2.03;;;8.70;40.30;;;;;;5010723;28;20061;-87
2022/03/11 01:39:24;;;;;;;3.57;2.10;;;8.70;40.30;;;;;;4997039;28;20256;-87
2022/03/11 01:41:50;;;;;;;4.50;2.38;;;8.70;40.30;;;;;;4998869;28;20022;-86
2022/03/11 01:44:16;;;;;;;4.23;2.53;;;8.70;40.30;;;;;;4974117;28;20150;-87
2022/03/11 01:46:41;;;;;;;4.15;2.28;;;8.70;40.30;;;;;;4995635;28;20034;-86
2022/03/11 01:49:09;;;;;;;3.97;2.30;;;8.60;41.00;;;;;;4988004;28;20051;-86
2022/03/11 01:51:38;;;;;;;4.07;2.22;;;8.60;40.60;;;;;;5011937;28;20029;-87
2022/03/11 01:54:04;;;;;;;3.92;2.10;;;8.60;41.60;;;;;;4981385;28;20026;-87
2022/03/11 01:56:31;;;;;;;4.25;2.40;;;8.60;40.70;;;;;;4992669;28;20433;-86
2022/03/11 01:58:57;;;;;;;4.10;2.40;;;8.60;40.40;;;;;;5016002;28;20041;-86
2022/03/11 02:01:24;;;;;;;3.25;2.05;;;8.50;40.60;;;;;;4989810;28;20203;-86
2022/03/11 02:03:50;;;;;;;3.53;2.17;;;8.50;40.70;;;;;;5019584;28;20120;-86
2022/03/11 02:06:16;;;;;;;3.72;2.28;;;8.50;40.70;;;;;;4991338;28;20182;-86
2022/03/11 02:08:42;;;;;;;4.03;2.07;;;8.50;40.80;;;;;;5009640;28;20108;-86
2022/03/11 02:11:11;;;;;;;3.70;2.15;;;8.50;40.80;;;;;;4990142;28;20051;-87
2022/03/11 02:13:47;;;;;;;4.50;2.20;;;8.40;40.90;;;;;;4982900;28;20048;-87
2022/03/11 02:16:14;;;;;;;3.28;1.98;;;8.40;41.40;;;;;;4975067;28;20100;-87
2022/03/11 02:18:40;;;;;;;4.68;2.22;;;8.40;41.10;;;;;;4999396;28;20079;-86
2022/03/11 02:21:07;;;;;;;3.80;2.13;;;8.30;41.00;;;;;;4983220;28;20037;-86
2022/03/11 02:23:53;;;;;;;3.63;2.00;;;8.30;41.00;;;;;;5007229;28;20025;-87
2022/03/11 02:26:20;;;;;;;3.92;2.00;;;8.30;41.80;;;;;;4986108;28;20356;-87
2022/03/11 02:28:47;;;;;;;4.50;2.58;;;8.20;41.10;;;;;;5001281;28;20054;-87
2022/03/11 02:31:13;;;;;;;3.45;2.08;;;8.20;41.20;;;;;;5008005;28;20026;-86
2022/03/11 02:33:40;;;;;;;3.53;1.90;;;8.20;41.10;;;;;;4981676;28;20037;-86
2022/03/11 02:36:06;;;;;;;3.80;2.25;;;8.10;41.10;;;;;;5014498;28;20034;-86
2022/03/11 02:38:32;;;;;;;3.45;2.03;;;8.10;41.30;;;;;;4991284;28;20271;-86
2022/03/11 02:40:58;;;;;;;4.28;2.30;;;8.10;41.00;;;;;;5012020;28;20437;-86
2022/03/11 02:43:24;;;;;;;3.20;2.20;;;8.10;41.30;;;;;;5003369;28;20115;-86
2022/03/11 02:45:50;;;;;;;3.83;2.33;;;8.10;41.50;;;;;;4995582;28;20648;-86
2022/03/11 02:48:17;;;;;;;3.85;2.22;;;8.10;41.30;;;;;;4975805;28;20578;-86
2022/03/11 02:50:43;;;;;;;4.13;2.30;;;8.10;41.30;;;;;;5018512;28;20065;-87
2022/03/11 02:53:09;;;;;;;4.05;2.35;;;8.10;41.20;;;;;;4985059;28;20497;-86
2022/03/11 02:55:35;;;;;;;3.70;2.10;;;8.10;41.30;;;;;;5007255;28;20056;-86
2022/03/11 02:58:00;;;;;;;3.90;2.00;;;8.10;41.40;;;;;;5002704;28;20025;-86
2022/03/11 03:00:26;;;;;;;3.23;2.20;;;8.10;41.50;;;;;;5004194;28;20026;-86
2022/03/11 03:02:52;;;;;;;3.97;2.20;;;8.10;41.50;;;;;;5002639;28;20375;-86
2022/03/11 03:05:17;;;;;;;3.58;2.05;;;8.10;41.50;;;;;;4997177;28;20497;-86
2022/03/11 03:07:43;;;;;;;4.43;2.20;;;8.10;41.50;;;;;;5008977;28;20033;-87
2022/03/11 03:10:10;;;;;;;3.42;2.08;;;8.10;41.60;;;;;;5002630;28;20030;-87
2022/03/11 03:12:38;;;;;;;3.93;1.90;;;8.10;41.60;;;;;;4994994;28;20035;-87
2022/03/11 03:15:04;;;;;;;3.58;2.17;;;8.10;41.60;;;;;;4987093;28;20025;-87
2022/03/11 03:17:30;;;;;;;4.85;2.10;;;8.10;41.60;;;;;;4981085;28;20033;-87
2022/03/11 03:19:55;;;;;;;3.92;2.00;;;8.00;41.70;;;;;;5000705;28;20065;-87
2022/03/11 03:22:21;;;;;;;3.30;2.00;;;8.00;41.60;;;;;;4991089;28;20123;-86
2022/03/11 03:24:47;;;;;;;3.83;2.10;;;8.00;41.50;;;;;;4997749;28;20025;-86
2022/03/11 03:27:13;;;;;;;3.33;1.95;;;8.00;42.40;;;;;;4985247;28;20033;-86
2022/03/11 03:29:39;;;;;;;3.67;2.10;;;7.90;41.60;;;;;;5009486;28;20095;-86
2022/03/11 03:32:05;;;;;;;5.13;2.40;;;7.90;41.80;;;;;;4997518;28;20017;-86
2022/03/11 03:34:33;;;;;;;3.55;2.10;;;7.90;41.80;;;;;;4998312;28;20744;-86
2022/03/11 03:37:01;;;;;;;3.53;1.83;;;7.80;41.80;;;;;;5016149;28;20083;-87
2022/03/11 03:39:28;;;;;;;3.88;2.00;;;7.80;41.80;;;;;;4988061;28;20287;-87
2022/03/11 03:41:55;;;;;;;3.35;2.10;;;7.70;41.80;;;;;;4994171;28;20033;-86
2022/03/11 03:44:21;;;;;;;3.95;2.22;;;7.70;42.30;;;;;;4986047;28;20861;-87
2022/03/11 03:46:46;;;;;;;3.55;1.95;;;7.70;41.90;;;;;;4996690;28;20068;-86
2022/03/11 03:49:14;;;;;;;3.10;2.00;;;7.70;41.90;;;;;;4994828;28;20101;-86
2022/03/11 03:51:39;;;;;;;3.92;2.13;;;7.70;41.90;;;;;;4982802;28;20030;-86
2022/03/11 03:54:10;;;;;;;3.93;1.80;;;7.60;42.00;;;;;;5002448;28;20080;-86
2022/03/11 03:56:37;;;;;;;4.20;2.40;;;7.60;42.10;;;;;;4984303;28;20025;-87
2022/03/11 03:59:07;;;;;;;4.00;1.95;;;7.60;42.70;;;;;;5015942;28;20497;-86
2022/03/11 04:01:38;;;;;;;3.65;2.10;;;7.60;42.40;;;;;;4984643;28;20037;-87
2022/03/11 04:04:05;;;;;;;3.97;2.10;;;7.60;42.40;;;;;;4999254;28;20044;-86
2022/03/11 04:06:33;;;;;;;4.53;2.33;;;7.50;43.00;;;;;;5012550;28;20030;-87
2022/03/11 04:08:59;;;;;;;3.22;2.03;;;7.50;42.40;;;;;;5002417;28;20367;-87
2022/03/11 04:11:27;;;;;;;4.18;2.10;;;7.50;42.50;;;;;;5004034;28;20342;-86
2022/03/11 04:13:53;;;;;;;3.60;1.88;;;7.40;42.40;;;;;;4992341;28;20183;-86
2022/03/11 04:16:19;;;;;;;4.10;2.00;;;7.40;42.40;;;;;;4993094;28;20318;-87
2022/03/11 04:18:46;;;;;;;3.25;1.88;;;7.40;42.40;;;;;;5006344;28;20474;-87
2022/03/11 04:21:13;;;;;;;3.50;1.90;;;7.40;42.50;;;;;;5003594;28;20098;-87
2022/03/11 04:23:39;;;;;;;3.78;1.88;;;7.30;42.40;;;;;;5001418;28;20346;-87
2022/03/11 04:26:05;;;;;;;3.15;1.80;;;7.30;42.60;;;;;;4995004;28;20033;-87
2022/03/11 04:28:31;;;;;;;3.13;1.60;;;7.30;42.70;;;;;;4989340;28;20631;-86
2022/03/11 04:30:57;;;;;;;3.22;1.90;;;7.20;42.70;;;;;;4997965;28;20108;-86
2022/03/11 04:33:22;;;;;;;3.00;1.90;;;7.20;42.60;;;;;;5006453;28;20052;-86
2022/03/11 04:35:48;;;;;;;3.85;2.30;;;7.20;42.60;;;;;;4997262;28;20018;-87
2022/03/11 04:38:14;;;;;;;3.97;2.30;;;7.10;42.40;;;;;;4999290;28;20025;-86
2022/03/11 04:40:40;;;;;;;3.67;1.85;;;7.10;42.80;;;;;;5014686;28;20052;-87
2022/03/11 04:43:05;;;;;;;3.22;2.00;;;7.10;42.90;;;;;;4996858;28;20109;-87
2022/03/11 04:45:31;;;;;;;3.60;2.13;;;7.10;43.10;;;;;;5001089;28;20056;-87
2022/03/11 04:47:57;;;;;;;3.60;2.40;;;7.10;43.10;;;;;;4993781;28;20033;-86
2022/03/11 04:50:23;;;;;;;2.90;1.80;;;7.10;43.20;;;;;;5015819;28;20051;-86
2022/03/11 04:52:48;;;;;;;3.65;1.90;;;7.10;43.10;;;;;;4982860;28;20030;-86
2022/03/11 04:55:16;;;;;;;4.33;2.13;;;7.10;43.00;;;;;;5012325;28;20022;-87
2022/03/11 04:57:42;;;;;;;4.45;2.08;;;7.00;42.90;;;;;;4992821;28;20185;-86
2022/03/11 05:00:08;;;;;;;4.05;2.13;;;7.10;43.00;;;;;;5008272;28;20037;-86
2022/03/11 05:02:35;;;;;;;3.63;2.00;;;7.10;43.10;;;;;;4991503;28;20772;-86
2022/03/11 05:05:07;;;;;;;3.50;2.08;;;7.10;43.10;;;;;;4996013;28;20494;-86
2022/03/11 05:07:34;;;;;;;3.20;1.80;;;7.10;43.60;;;;;;4998009;28;20115;-85
2022/03/11 05:10:00;;;;;;;3.85;2.42;;;7.20;43.20;;;;;;5018003;28;20025;-85
2022/03/11 05:12:26;;;;;;;5.72;2.53;;;7.20;43.20;;;;;;5006474;28;20422;-86
2022/03/11 05:14:52;;;;;;;3.65;2.20;;;7.20;43.20;;;;;;4995052;28;20034;-86
2022/03/11 05:17:18;;;;;;;4.30;2.50;;;7.30;43.40;;;;;;4996479;28;20252;-86
2022/03/11 05:19:44;;;;;;;3.83;2.17;;;7.40;43.20;;;;;;4984277;28;20029;-85
2022/03/11 05:22:11;;;;;;;5.00;2.33;;;7.40;43.40;;;;;;4991480;28;20029;-86
2022/03/11 05:24:38;;;;;;;4.13;2.03;;;7.50;43.30;;;;;;5026560;28;20491;-86
2022/03/11 05:27:04;;;;;;;3.65;2.10;;;7.50;43.20;;;;;;4995104;28;20101;-86
2022/03/11 05:29:34;;;;;;;4.50;2.30;;;7.50;43.30;;;;;;5010400;28;20255;-88
2022/03/11 05:32:00;;;;;;;3.60;2.15;;;7.50;43.50;;;;;;5006017;28;20033;-85
2022/03/11 05:34:26;;;;;;;4.13;2.38;;;7.60;43.30;;;;;;5002126;28;20030;-85
2022/03/11 05:36:52;;;;;;;4.37;2.73;;;7.60;43.20;;;;;;4999615;28;20039;-85
2022/03/11 05:39:17;;;;;;;5.28;2.50;;;7.70;43.40;;;;;;4978830;28;20379;-85
2022/03/11 05:41:44;;;;;;;4.28;2.75;;;7.70;43.30;;;;;;4997298;28;20026;-85
2022/03/11 05:44:10;;;;;;;3.95;2.10;;;7.70;43.40;;;;;;4987000;28;20435;-85
2022/03/11 05:46:36;;;;;;;4.60;2.30;;;7.80;43.40;;;;;;5014049;28;20287;-85
2022/03/11 05:49:02;;;;;;;5.03;2.72;;;7.80;43.40;;;;;;5001695;28;20045;-85
2022/03/11 05:51:27;;;;;;;4.07;2.42;;;7.80;43.50;;;;;;5010939;28;20025;-85
2022/03/11 05:53:53;;;;;;;3.93;2.33;;;7.80;43.60;;;;;;5014346;28;20505;-85
2022/03/11 05:56:20;;;;;;;5.50;2.80;;;7.80;43.40;;;;;;4981433;28;20021;-86
2022/03/11 05:58:46;;;;;;;4.93;2.70;;;7.90;43.70;;;;;;5007509;28;20067;-86
2022/03/11 06:01:12;;;;;;;4.87;2.37;;;7.90;43.70;;;;;;4975063;28;20033;-86
2022/03/11 06:03:38;;;;;;;4.15;2.40;;;7.90;43.70;;;;;;4994954;28;20034;-86
2022/03/11 06:06:03;;;;;;;4.13;2.33;;;7.90;43.70;;;;;;5004011;28;20107;-85
2022/03/11 06:08:29;;;;;;;5.50;2.20;;;8.00;43.70;;;;;;4983394;28;20072;-85
2022/03/11 06:10:55;;;;;;;3.50;2.30;;;8.00;43.60;;;;;;4979042;28;20139;-86
2022/03/11 06:13:20;;;;;;;4.67;2.30;;;8.00;43.60;;;;;;5014248;28;20026;-85
2022/03/11 06:15:46;;;;;;;5.07;2.20;;;8.00;43.60;;;;;;4987730;28;20025;-86
2022/03/11 06:18:15;;;;;;;5.30;2.55;;;8.00;43.70;;;;;;5000306;28;20052;-86
2022/03/11 06:20:41;;;;;;;4.18;2.40;;;8.00;43.60;;;;;;4988751;28;20493;-86
2022/03/11 06:23:07;;;;;;;5.35;2.53;;;8.00;43.70;;;;;;5000182;28;20244;-86
2022/03/11 06:25:33;;;;;;;4.33;2.17;;;8.00;43.70;;;;;;4983374;28;20395;-85
2022/03/11 06:27:58;;;;;;;5.40;2.88;;;8.00;43.90;;;;;;5004729;28;20050;-85
2022/03/11 06:30:24;;;;;;;4.23;2.20;;;8.10;43.80;;;;;;5006501;28;20018;-87
2022/03/11 06:32:51;;;;;;;4.40;2.28;;;8.10;43.90;;;;;;5003245;28;20083;-87
2022/03/11 06:35:17;;;;;;;4.05;2.40;;;8.10;44.10;;;;;;5015129;28;20018;-86
2022/03/11 06:37:45;;;;;;;5.20;2.97;;;8.10;44.70;;;;;;4980827;28;20098;-85
2022/03/11 06:40:12;;;;;;;4.32;2.40;;;8.10;44.10;;;;;;5010290;28;20196;-84
2022/03/11 06:42:43;;;;;;;4.15;2.25;;;8.20;44.10;;;;;;4991387;28;20069;-84
2022/03/11 06:45:11;;;;;;;4.82;2.88;;;8.20;44.00;;;;;;5001167;28;20033;-85
2022/03/11 06:47:37;;;;;;;5.38;2.90;;;8.20;44.20;;;;;;4996441;28;20022;-85
2022/03/11 06:50:04;;;;;;;3.87;2.03;;;8.30;44.50;;;;;;4982308;28;20021;-84
2022/03/11 06:52:30;;;;;;;4.70;2.70;;;8.40;44.80;;;;;;4997118;28;20033;-85
2022/03/11 06:54:56;;;;;;;4.88;2.80;;;8.60;45.00;;;;;;4977528;28;20132;-85
2022/03/11 06:57:21;;;;;;;5.73;2.60;;;8.70;45.30;;;;;;4990994;28;20040;-86
2022/03/11 06:59:48;;;;;;;4.65;2.72;;;8.90;45.10;;;;;;5002297;28;20025;-86
2022/03/11 07:02:15;;;;;;;4.65;2.53;;;9.00;44.90;;;;;;5012194;28;20032;-86
2022/03/11 07:04:41;;;;;;;4.90;2.97;;;9.20;44.80;;;;;;4995435;28;20044;-86
2022/03/11 07:07:07;;;;;;;5.75;3.17;;;9.30;44.90;;;;;;5004589;28;20041;-85
2022/03/11 07:09:33;;;;;;;6.55;3.50;;;9.50;45.00;;;;;;4977087;28;20129;-85
2022/03/11 07:12:02;;;;;;;5.15;2.90;;;9.70;45.20;;;;;;4985316;28;20651;-86
2022/03/11 07:14:28;;;;;;;5.53;3.10;;;9.80;45.00;;;;;;5003288;28;20127;-85
2022/03/11 07:16:56;;;;;;;6.70;3.20;;;10.00;45.00;;;;;;4981186;28;20239;-86
2022/03/11 07:19:23;;;;;;;5.32;2.95;;;10.20;44.90;;;;;;4988690;28;20032;-86
2022/03/11 07:21:48;;;;;;;4.35;2.58;;;10.30;44.70;;;;;;4981774;28;20030;-86
2022/03/11 07:24:14;;;;;;;4.75;2.60;;;10.50;44.30;;;;;;4978567;28;20102;-85
2022/03/11 07:26:40;;;;;;;6.57;2.83;;;10.60;44.10;;;;;;4998397;28;20065;-86
2022/03/11 07:29:06;;;;;;;6.03;3.45;;;10.60;43.90;;;;;;4993632;28;20042;-86
2022/03/11 07:31:32;;;;;;;5.03;3.00;;;10.70;44.10;;;;;;5002712;28;20022;-86
2022/03/11 07:33:58;;;;;;;5.50;2.77;;;10.90;44.30;;;;;;5004359;28;20389;-86
2022/03/11 07:36:23;;;;;;;6.03;3.45;;;11.00;44.60;;;;;;4985457;28;20478;-86
2022/03/11 07:38:49;;;;;;;4.78;3.00;;;11.20;44.80;;;;;;4998213;28;20087;-86
2022/03/11 07:41:16;;;;;;;6.33;3.33;;;11.40;44.90;;;;;;4992207;28;20076;-85
2022/03/11 07:43:44;;;;;;;6.20;3.45;;;11.70;44.90;;;;;;4972102;28;20038;-86
2022/03/11 07:46:10;;;;;;;6.28;3.15;;;12.00;44.80;;;;;;4997424;28;20309;-85
2022/03/11 07:48:36;;;;;;;6.10;3.40;;;12.30;44.80;;;;;;5004259;28;20038;-86
2022/03/11 07:51:02;;;;;;;5.05;2.90;;;12.60;44.70;;;;;;4996453;28;20041;-85
2022/03/11 07:53:28;;;;;;;6.30;3.35;;;13.00;44.40;;;;;;4990490;28;20030;-86
2022/03/11 07:55:54;;;;;;;5.83;3.00;;;13.30;44.00;;;;;;4993483;28;20203;-85
2022/03/11 07:58:21;;;;;;;5.68;3.50;;;13.70;44.40;;;;;;4996030;28;20033;-87
2022/03/11 08:00:48;;;;;;;5.70;3.50;;;14.10;44.20;;;;;;4986092;28;20026;-86
2022/03/11 08:03:15;;;;;;;4.78;2.92;;;14.40;44.50;;;;;;4991612;28;20018;-87
2022/03/11 08:05:40;;;;;;;4.50;2.90;;;14.80;44.00;;;;;;4994261;28;20116;-86
2022/03/11 08:08:06;;;;;;;5.43;3.38;;;15.20;43.60;;;;;;4987014;28;20091;-86
2022/03/11 08:10:36;;;;;;;6.40;3.63;;;15.50;42.80;;;;;;4995685;28;20025;-87
2022/03/11 08:13:03;;;;;;;5.05;3.10;;;15.90;42.50;;;;;;4999344;28;20018;-86
2022/03/11 08:15:29;;;;;;;5.35;3.25;;;16.20;42.10;;;;;;4989601;28;20309;-87
2022/03/11 08:17:55;;;;;;;5.53;3.35;;;16.50;42.00;;;;;;5002367;28;20077;-86
2022/03/11 08:20:21;;;;;;;5.97;3.37;;;16.80;41.70;;;;;;5014822;28;20395;-87
2022/03/11 08:22:48;;;;;;;5.75;3.70;;;17.10;41.30;;;;;;4988344;28;20310;-87
2022/03/11 08:25:15;;;;;;;6.85;3.67;;;17.30;40.80;;;;;;4985189;28;20562;-87
2022/03/11 08:27:41;;;;;;;6.72;2.90;;;17.50;40.80;;;;;;4987270;28;20507;-86
2022/03/11 08:30:09;;;;;;;5.32;3.33;;;17.70;40.70;;;;;;4983249;28;20038;-87
2022/03/11 08:32:35;;;;;;;5.20;3.20;;;18.00;40.50;;;;;;4997854;28;20037;-87
2022/03/11 08:35:01;;;;;;;5.15;3.35;;;18.30;40.50;;;;;;4989314;28;20382;-86
2022/03/11 08:37:27;;;;;;;5.85;3.58;;;18.50;39.80;;;;;;5001009;28;20251;-86
2022/03/11 08:39:53;;;;;;;5.82;3.67;;;18.60;39.30;;;;;;5008349;28;20843;-86
2022/03/11 08:42:18;;;;;;;6.57;3.80;;;18.80;38.60;;;;;;5004896;28;20022;-87
2022/03/11 08:44:45;;;;;;;5.32;3.75;;;18.90;38.30;;;;;;4968712;28;20163;-87
2022/03/11 08:47:12;;;;;;;7.00;3.60;;;19.10;37.80;;;;;;4989672;28;20095;-86
2022/03/11 08:49:37;;;;;;;5.83;3.73;;;19.20;37.80;;;;;;4976578;28;20345;-87
2022/03/11 08:52:04;;;;;;;5.80;3.72;;;19.40;37.00;;;;;;5001942;28;20022;-87
2022/03/11 08:54:29;;;;;;;6.40;3.28;;;19.40;37.00;;;;;;5020447;28;20029;-87
2022/03/11 08:56:55;;;;;;;5.93;3.17;;;19.50;37.70;;;;;;4993779;28;20033;-87
2022/03/11 08:59:21;;;;;;;5.32;3.58;;;19.70;37.80;;;;;;4980246;28;20108;-87
2022/03/11 09:01:50;;;;;;;6.00;3.75;;;19.90;37.50;;;;;;4986573;28;20033;-87
2022/03/11 09:04:16;;;;;;;6.23;3.40;;;20.10;37.20;;;;;;4982033;28;20551;-87
2022/03/11 09:06:42;;;;;;;5.90;3.17;;;20.30;37.10;;;;;;5006546;28;20034;-89
2022/03/11 09:09:08;;;;;;;5.30;3.17;;;20.50;37.10;;;;;;4999256;28;20025;-86
2022/03/11 09:11:34;;;;;;;5.77;3.37;;;20.70;36.90;;;;;;5011219;28;20645;-86
2022/03/11 09:14:00;;;;;;;5.43;3.58;;;20.90;36.80;;;;;;4984328;28;20056;-86
2022/03/11 09:16:26;;;;;;;4.65;3.22;;;21.10;36.30;;;;;;4990851;28;20030;-87
2022/03/11 09:18:54;;;;;;;4.20;3.00;;;21.20;35.70;;;;;;4983231;28;20434;-86
2022/03/11 09:21:20;;;;;;;4.93;3.08;;;21.30;35.10;;;;;;5006045;28;20168;-88
2022/03/11 09:23:47;;;;;;;6.10;3.70;;;21.40;35.20;;;;;;4991718;28;20040;-88
2022/03/11 09:26:13;;;;;;;5.72;4.07;;;21.40;35.10;;;;;;5002007;28;20356;-87
2022/03/11 09:28:40;;;;;;;5.38;3.45;;;21.50;35.10;;;;;;5002214;28;20149;-88
2022/03/11 09:31:08;;;;;;;4.67;3.30;;;21.60;34.80;;;;;;5014402;28;20041;-88
2022/03/11 09:33:40;;;;;;;4.75;3.20;;;21.70;34.70;;;;;;4995462;28;20436;-87
2022/03/11 09:36:07;;;;;;;5.00;3.67;;;21.80;34.50;;;;;;5001426;28;20398;-87
2022/03/11 09:38:33;;;;;;;5.95;3.90;;;21.90;34.10;;;;;;5001354;28;20036;-88
2022/03/11 09:41:02;;;;;;;5.15;3.30;;;21.90;33.60;;;;;;5006180;28;20230;-88
2022/03/11 09:43:27;;;;;;;4.60;3.10;;;22.00;33.90;;;;;;5001511;28;20405;-86
2022/03/11 09:45:53;;;;;;;4.57;3.20;;;22.10;33.90;;;;;;4998694;28;20031;-86
2022/03/11 09:48:20;;;;;;;5.78;3.65;;;22.10;33.90;;;;;;5012261;28;20026;-88
2022/03/11 09:50:46;;;;;;;5.73;4.00;;;22.30;33.20;;;;;;4992537;28;20428;-87
2022/03/11 09:53:12;;;;;;;5.32;3.47;;;22.30;32.70;;;;;;5012121;28;20021;-88
2022/03/11 09:55:42;;;;;;;5.07;3.20;;;22.30;32.80;;;;;;5001227;28;20433;-87
2022/03/11 09:58:08;;;;;;;4.60;2.90;;;22.40;33.00;;;;;;5020122;28;20326;-88
2022/03/11 10:00:34;;;;;;;4.87;3.37;;;22.50;33.50;;;;;;4999224;28;20056;-87
2022/03/11 10:03:00;;;;;;;5.13;3.30;;;22.60;33.30;;;;;;5009136;28;20025;-88
2022/03/11 10:05:44;;;;;;;4.85;3.47;;;22.80;33.20;;;;;;4987454;28;20084;-87
2022/03/11 10:08:10;;;;;;;5.63;3.05;;;22.90;32.70;;;;;;5005847;28;20038;-88
2022/03/11 10:10:36;;;;;;;5.70;3.40;;;23.00;32.60;;;;;;5001589;28;20386;-88
2022/03/11 10:13:02;;;;;;;5.18;3.42;;;23.20;32.50;;;;;;5017064;28;20122;-87
2022/03/11 10:15:29;;;;;;;4.90;3.33;;;23.30;32.30;;;;;;4991831;28;20661;-87
2022/03/11 10:17:55;;;;;;;3.90;2.97;;;23.40;32.20;;;;;;5008326;28;20029;-87
2022/03/11 10:20:21;;;;;;;4.32;3.53;;;23.40;32.30;;;;;;4984182;28;20025;-88
2022/03/11 10:22:47;;;;;;;7.30;3.80;;;23.50;31.60;;;;;;5021560;28;20735;-87
2022/03/11 10:25:23;;;;;;;4.63;3.33;;;23.60;31.40;;;;;;5004480;28;20086;-87
2022/03/11 10:28:03;;;;;;;4.03;2.95;;;23.60;31.40;;;;;;5009312;28;20057;-88
2022/03/11 10:30:32;;;;;;;5.50;3.35;;;23.60;31.50;;;;;;4984936;28;20621;-87
2022/03/11 10:33:00;;;;;;;4.47;3.08;;;23.60;31.70;;;;;;4982868;28;20055;-87
2022/03/11 10:35:36;;;;;;;3.85;3.13;;;23.80;32.20;;;;;;4968863;28;20828;-88
2022/03/11 10:38:15;;;;;;;3.40;2.63;;;23.90;32.10;;;;;;4984437;28;20410;-87
2022/03/11 10:40:52;;;;;;;3.58;2.92;;;24.10;32.40;;;;;;5004768;28;20600;-88
2022/03/11 10:43:21;;;;;;;4.32;3.08;;;24.40;32.10;;;;;;4985058;28;20177;-86
2022/03/11 10:45:48;;;;;;;4.78;3.20;;;24.60;32.40;;;;;;5002943;28;20037;-88
2022/03/11 10:48:14;;;;;;;4.10;2.75;;;24.90;32.30;;;;;;4974554;28;20422;-87
2022/03/11 10:50:40;;;;;;;3.87;2.90;;;25.10;31.80;;;;;;4981698;28;20360;-88
2022/03/11 10:53:07;;;;;;;4.47;3.10;;;25.30;31.50;;;;;;4996971;28;20030;-88
2022/03/11 10:55:33;;;;;;;3.72;2.67;;;25.40;31.30;;;;;;4999644;28;20029;-88
2022/03/11 10:58:01;;;;;;;3.23;2.43;;;25.50;31.40;;;;;;5003031;28;20034;-88
2022/03/11 11:00:39;;;;;;;4.57;2.85;;;25.70;31.30;;;;;;4988501;28;20326;-87
2022/03/11 11:03:08;;;;;;;3.90;2.45;;;25.80;31.00;;;;;;5003456;28;20029;-87
2022/03/11 11:05:35;;;;;;;3.53;2.60;;;25.80;30.80;;;;;;4979388;28;20262;-88
2022/03/11 11:08:03;;;;;;;3.72;2.63;;;25.90;30.80;;;;;;4989124;28;20065;-88
2022/03/11 11:10:30;;;;;;;3.47;2.60;;;25.90;30.40;;;;;;4982598;28;20909;-87
2022/03/11 11:12:56;;;;;;;3.55;2.72;;;25.90;30.10;;;;;;4985685;28;20021;-88
2022/03/11 11:15:24;;;;;;;3.67;2.45;;;25.90;30.30;;;;;;4996490;28;20072;-88
2022/03/11 11:17:50;;;;;;;4.60;3.00;;;25.80;30.30;;;;;;5001959;28;20544;-88
2022/03/11 11:20:45;;;;;;;3.90;2.55;;;25.80;29.90;;;;;;4983079;28;20774;-88
2022/03/11 11:23:12;;;;;;;3.70;2.73;;;25.70;30.20;;;;;;4994470;28;20021;-89
2022/03/11 11:25:39;;;;;;;3.70;2.83;;;25.80;30.80;;;;;;4996269;28;20054;-89
2022/03/11 11:28:18;;;;;;;3.38;2.67;;;25.90;30.90;;;;;;4991676;28;20057;-88
2022/03/11 11:30:46;;;;;;;3.47;2.95;;;26.00;30.80;;;;;;5005928;28;20461;-89
2022/03/11 11:33:14;;;;;;;4.10;2.67;;;26.20;30.70;;;;;;5000220;28;20192;-89
2022/03/11 11:35:41;;;;;;;4.20;2.30;;;26.40;30.80;;;;;;5009837;28;20022;-90
2022/03/11 11:38:28;;;;;;;3.17;2.50;;;26.50;30.80;;;;;;4993386;28;20501;-89
2022/03/11 11:40:56;;;;;;;3.35;2.63;;;26.70;30.20;;;;;;5013138;28;20030;-89
2022/03/11 11:43:27;;;;;;;3.03;2.13;;;26.70;30.00;;;;;;4996738;28;20639;-89
2022/03/11 11:46:02;;;;;;;4.75;2.70;;;26.70;30.90;;;;;;5004597;28;20018;-89
2022/03/11 11:48:34;;;;;;;3.60;2.30;;;26.80;29.90;;;;;;4998385;28;20115;-88
2022/03/11 11:51:02;;;;;;;4.10;2.60;;;26.90;30.00;;;;;;4997917;28;20752;-88
2022/03/11 11:53:35;;;;;;;3.40;2.50;;;26.90;30.00;;;;;;4988526;28;20018;-89
2022/03/11 11:56:01;;;;;;;3.75;2.30;;;27.00;29.90;;;;;;5004446;28;20448;-88
2022/03/11 11:58:30;;;;;;;3.42;2.63;;;27.00;29.80;;;;;;5004382;28;20021;-90
2022/03/11 12:00:57;;;;;;;3.17;2.37;;;27.10;29.60;;;;;;5011568;28;20461;-88
2022/03/11 12:03:49;;;;;;;3.60;2.65;;;27.00;29.50;;;;;;5010116;28;20168;-88
2022/03/11 12:06:54;;;;;;;3.33;2.30;;;27.00;29.20;;;;;;4999916;28;20836;-88
2022/03/11 12:09:38;;;;;;;3.92;2.30;;;26.90;29.30;;;;;;5009351;28;20030;-88
2022/03/11 12:12:07;;;;;;;3.63;2.30;;;26.90;29.60;;;;;;4992120;28;20030;-88
2022/03/11 12:17:42;;;;;;;3.60;2.60;;;27.00;29.90;;;;;;5015912;28;20115;-89
2022/03/11 12:20:39;;;;;;;3.10;2.50;;;27.20;29.50;;;;;;5000927;28;20616;-89
2022/03/11 12:23:11;;;;;;;2.60;2.13;;;27.30;29.20;;;;;;4983070;28;20120;-88
2022/03/11 12:25:40;;;;;;;3.88;2.90;;;27.20;29.00;;;;;;4998956;28;20151;-89
2022/03/11 12:28:08;;;;;;;2.90;2.40;;;27.20;29.20;;;;;;4997705;28;20565;-88
2022/03/11 12:30:38;;;;;;;2.92;2.00;;;27.20;29.40;;;;;;4982178;28;20641;-89
2022/03/11 12:33:36;;;;;;;2.83;2.28;;;27.20;29.30;;;;;;5012020;28;20060;-89
2022/03/11 12:36:05;;;;;;;3.70;2.45;;;27.30;29.10;;;;;;4984587;28;20030;-89
2022/03/11 12:38:32;;;;;;;2.92;2.40;;;27.20;28.80;;;;;;5002015;28;20549;-90
2022/03/11 12:41:05;;;;;;;3.77;2.70;;;27.20;28.90;;;;;;5003649;28;20112;-89
2022/03/11 12:43:32;;;;;;;2.72;2.33;;;27.10;28.50;;;;;;4978338;28;20025;-90
2022/03/11 12:45:59;;;;;;;3.20;2.33;;;27.00;28.70;;;;;;5002977;28;20375;-89
2022/03/11 12:48:28;;;;;;;3.05;2.60;;;26.90;28.70;;;;;;4997451;28;20497;-88
2022/03/11 12:50:54;;;;;;;3.40;2.17;;;26.90;28.60;;;;;;5001162;28;20049;-89
2022/03/11 12:53:20;;;;;;;4.80;2.37;;;26.80;28.80;;;;;;4977502;28;20018;-89
2022/03/11 12:55:53;;;;;;;2.83;2.20;;;26.80;29.00;;;;;;5014246;28;20483;-87
2022/03/11 12:58:33;;;;;;;2.80;2.30;;;26.90;29.10;;;;;;5005881;28;20040;-89